Time;durP1;ratioP1;P1;durP2;ratioP2;P2;SDS_P1;SDS_P2;PMS_P1;PMS_P2;Temp;Humidity;BMP_temperature;BMP_pressure;BME280_temperature;BME280_humidity;BME280_pressure;Samples;Min_cycle;Max_cycle;Signal;HPM_P1;HPM_P2
2023/03/26 00:01:45;;;;;;;0.35;0.22;;;;;;;17.83;41.13;99702.91;5094984;28;20047;-70
2023/03/26 00:04:13;;;;;;;1.15;0.45;;;;;;;17.81;41.24;99694.13;5094906;28;20586;-70
2023/03/26 00:06:41;;;;;;;0.65;0.30;;;;;;;17.82;41.26;99690.44;5094696;28;20173;-70
2023/03/26 00:09:12;;;;;;;0.40;0.30;;;;;;;17.80;41.26;99687.03;5094652;28;20044;-70
2023/03/26 00:11:42;;;;;;;0.57;0.40;;;;;;;17.79;41.13;99679.94;5094840;28;20098;-71
2023/03/26 00:14:16;;;;;;;0.30;0.30;;;;;;;17.78;41.12;99672.88;5094614;28;20051;-71
2023/03/26 00:16:46;;;;;;;0.90;0.40;;;;;;;17.76;41.21;99685.63;5094505;28;20085;-71
2023/03/26 00:19:15;;;;;;;0.68;0.25;;;;;;;17.74;41.15;99677.69;5094535;28;20048;-70
2023/03/26 00:21:43;;;;;;;0.68;0.45;;;;;;;17.74;41.28;99683.09;5094561;28;20564;-72
2023/03/26 00:24:15;;;;;;;0.55;0.40;;;;;;;17.73;41.29;99674.16;5094689;28;20044;-72
2023/03/26 00:26:47;;;;;;;0.30;0.30;;;;;;;17.70;41.37;99677.16;5094590;28;20097;-70
2023/03/26 00:29:15;;;;;;;0.75;0.40;;;;;;;17.70;41.05;99687.94;5093846;28;20051;-71
2023/03/26 00:31:45;;;;;;;0.75;0.32;;;;;;;17.69;41.27;99683.56;5094421;28;20123;-71
2023/03/26 00:34:17;;;;;;;0.57;0.40;;;;;;;17.67;41.18;99682.84;5094193;28;20052;-71
2023/03/26 00:36:45;;;;;;;0.85;0.20;;;;;;;17.66;41.08;99686.53;5094291;28;20052;-71
2023/03/26 00:39:16;;;;;;;0.77;0.30;;;;;;;17.65;41.22;99695.59;5093994;28;20052;-70
2023/03/26 00:41:46;;;;;;;0.88;0.45;;;;;;;17.64;40.97;99679.56;5094190;28;20044;-70
2023/03/26 00:44:14;;;;;;;0.82;0.40;;;;;;;17.63;41.23;99686.81;5094180;28;20387;-70
2023/03/26 00:46:42;;;;;;;0.20;0.20;;;;;;;17.62;41.37;99677.03;5094013;28;20631;-70
2023/03/26 00:49:13;;;;;;;1.40;0.35;;;;;;;17.61;41.23;99669.09;5093987;28;20374;-70
2023/03/26 00:51:42;;;;;;;0.90;0.40;;;;;;;17.59;41.64;99663.84;5093966;28;20048;-71
2023/03/26 00:54:10;;;;;;;0.73;0.30;;;;;;;17.59;41.37;99674.66;5093888;28;20117;-71
2023/03/26 00:56:38;;;;;;;0.85;0.32;;;;;;;17.59;41.10;99671.09;5093789;28;20043;-70
2023/03/26 00:59:09;;;;;;;0.50;0.20;;;;;;;17.58;41.24;99670.25;5093825;28;20072;-70
2023/03/26 01:01:37;;;;;;;0.55;0.25;;;;;;;17.55;41.46;99657.06;5093762;28;20079;-70
2023/03/26 01:04:29;;;;;;;0.80;0.40;;;;;;;17.54;41.47;99655.38;5094038;28;20052;-70
2023/03/26 01:07:00;;;;;;;0.90;0.28;;;;;;;17.56;41.68;99658.75;5093929;28;20071;-71
2023/03/26 01:09:37;;;;;;;0.43;0.32;;;;;;;17.55;41.57;99659.75;5093498;28;20500;-71
2023/03/26 01:12:08;;;;;;;0.65;0.30;;;;;;;17.53;41.63;99650.13;5093719;28;20054;-70
2023/03/26 01:14:38;;;;;;;0.65;0.30;;;;;;;17.53;41.49;99653.66;5093314;28;20446;-71
2023/03/26 01:17:08;;;;;;;0.45;0.30;;;;;;;17.54;41.67;99651.81;5093501;28;20093;-71
2023/03/26 01:19:43;;;;;;;0.32;0.20;;;;;;;17.52;41.43;99662.75;5093517;28;20507;-71
2023/03/26 01:22:18;;;;;;;1.20;0.60;;;;;;;17.51;41.61;99665.63;5093256;28;20097;-71
2023/03/26 01:24:52;;;;;;;1.02;0.30;;;;;;;17.50;41.55;99659.38;5093317;28;20127;-71
2023/03/26 01:27:31;;;;;;;0.73;0.25;;;;;;;17.49;41.71;99667.63;5093566;28;20107;-70
2023/03/26 01:30:04;;;;;;;0.30;0.20;;;;;;;17.50;41.65;99659.38;5093261;28;20048;-70
2023/03/26 01:32:50;;;;;;;1.13;0.55;;;;;;;17.48;41.66;99666.78;5093271;28;20044;-70
2023/03/26 01:35:30;;;;;;;0.40;0.30;;;;;;;17.47;41.50;99667.78;5093007;28;20420;-70
2023/03/26 01:38:10;;;;;;;0.63;0.20;;;;;;;17.46;41.72;99666.91;5093114;28;20515;-70
2023/03/26 01:40:48;;;;;;;0.20;0.20;;;;;;;17.46;41.58;99668.75;5092194;28;20044;-71
2023/03/26 01:43:25;;;;;;;0.50;0.20;;;;;;;17.44;41.71;99671.59;5093143;28;20122;-71
2023/03/26 01:45:54;;;;;;;0.82;0.38;;;;;;;17.44;41.72;99681.53;5093081;28;20048;-70
2023/03/26 01:48:30;;;;;;;0.60;0.30;;;;;;;17.43;41.72;99674.44;5092924;28;20560;-70
2023/03/26 01:50:59;;;;;;;0.50;0.25;;;;;;;17.43;41.76;99675.28;5092927;28;20071;-69
2023/03/26 01:53:27;;;;;;;0.50;0.40;;;;;;;17.40;41.57;99672.91;5092663;28;20048;-70
2023/03/26 01:56:06;;;;;;;0.30;0.20;;;;;;;17.41;41.56;99671.06;5092783;28;20046;-69
2023/03/26 01:58:39;;;;;;;0.50;0.30;;;;;;;17.41;41.60;99668.38;5092637;28;20448;-70
2023/03/26 02:01:18;;;;;;;0.22;0.22;;;;;;;17.39;41.67;99676.59;5092678;28;20098;-71
2023/03/26 02:03:53;;;;;;;0.35;0.30;;;;;;;17.40;41.56;99674.75;5092526;28;20484;-70
2023/03/26 02:06:29;;;;;;;0.60;0.30;;;;;;;17.38;41.69;99679.44;5092781;28;20139;-71
2023/03/26 02:09:02;;;;;;;1.38;0.35;;;;;;;17.37;41.63;99685.81;5092517;28;20040;-70
2023/03/26 02:11:31;;;;;;;0.70;0.30;;;;;;;17.36;41.77;99689.50;5092488;28;20044;-70
2023/03/26 02:14:04;;;;;;;0.73;0.30;;;;;;;17.37;41.67;99685.81;5092416;28;20072;-70
2023/03/26 02:16:33;;;;;;;0.55;0.38;;;;;;;17.35;41.75;99682.44;5092197;28;20503;-71
2023/03/26 02:19:03;;;;;;;0.50;0.28;;;;;;;17.34;41.85;99691.50;5092452;28;20040;-70
2023/03/26 02:21:32;;;;;;;0.80;0.40;;;;;;;17.33;41.50;99687.13;5092329;28;20416;-71
2023/03/26 02:24:02;;;;;;;0.40;0.30;;;;;;;17.33;41.64;99687.13;5092240;28;20047;-71
2023/03/26 02:26:36;;;;;;;0.30;0.20;;;;;;;17.31;41.72;99683.72;5092180;28;20090;-71
2023/03/26 02:29:04;;;;;;;0.20;0.20;;;;;;;17.30;41.82;99692.81;5092099;28;20403;-71
2023/03/26 02:31:34;;;;;;;0.80;0.30;;;;;;;17.30;41.73;99688.28;5092311;28;20052;-71
2023/03/26 02:34:02;;;;;;;0.40;0.30;;;;;;;17.28;41.64;99686.75;5090914;28;20044;-70
2023/03/26 02:36:30;;;;;;;0.65;0.30;;;;;;;17.30;41.79;99690.13;5092061;28;20055;-71
2023/03/26 02:38:59;;;;;;;1.55;0.40;;;;;;;17.27;41.75;99679.63;5091742;28;20111;-70
2023/03/26 02:41:28;;;;;;;0.75;0.30;;;;;;;17.28;41.65;99681.34;5091998;28;20044;-70
2023/03/26 02:43:57;;;;;;;0.40;0.30;;;;;;;17.27;41.72;99679.63;5092013;28;20173;-70
2023/03/26 02:46:25;;;;;;;0.65;0.40;;;;;;;17.26;41.62;99672.53;5092001;28;20078;-70
2023/03/26 02:48:53;;;;;;;0.43;0.25;;;;;;;17.25;41.65;99671.69;5092079;28;20047;-71
2023/03/26 02:51:22;;;;;;;0.85;0.35;;;;;;;17.24;41.66;99671.84;5091827;28;20123;-71
2023/03/26 02:53:52;;;;;;;0.20;0.20;;;;;;;17.22;41.76;99671.16;5091979;28;20044;-71
2023/03/26 02:56:20;;;;;;;0.50;0.25;;;;;;;17.22;41.65;99668.47;5091976;28;20047;-71
2023/03/26 02:58:48;;;;;;;0.85;0.47;;;;;;;17.20;41.62;99656.97;5092282;28;20495;-70
2023/03/26 03:01:18;;;;;;;0.47;0.30;;;;;;;17.15;41.60;99655.56;5092779;28;20054;-71
2023/03/26 03:03:47;;;;;;;0.52;0.20;;;;;;;17.20;41.81;99667.75;5091955;28;20051;-70
2023/03/26 03:06:19;;;;;;;0.43;0.38;;;;;;;17.17;41.51;99669.72;5091936;28;20044;-70
2023/03/26 03:08:48;;;;;;;0.20;0.20;;;;;;;17.17;41.75;99680.50;5091858;28;20048;-70
2023/03/26 03:11:20;;;;;;;0.45;0.30;;;;;;;17.15;41.74;99671.72;5091871;28;20385;-70
2023/03/26 03:13:49;;;;;;;0.70;0.43;;;;;;;17.15;41.68;99666.34;5091742;28;20052;-70
2023/03/26 03:16:19;;;;;;;0.20;0.20;;;;;;;17.14;41.63;99664.66;5091580;28;20086;-70
2023/03/26 03:18:52;;;;;;;0.47;0.32;;;;;;;17.14;41.52;99670.03;5091691;28;20071;-70
2023/03/26 03:21:21;;;;;;;0.20;0.20;;;;;;;17.13;41.70;99667.50;5091636;28;20130;-70
2023/03/26 03:23:50;;;;;;;0.60;0.30;;;;;;;17.12;41.63;99668.50;5091629;28;20124;-71
2023/03/26 03:26:21;;;;;;;0.40;0.20;;;;;;;17.10;41.72;99657.88;5091736;28;20044;-70
2023/03/26 03:28:50;;;;;;;0.35;0.22;;;;;;;17.10;41.66;99676.75;5091687;28;20048;-71
2023/03/26 03:31:20;;;;;;;0.20;0.20;;;;;;;17.10;41.74;99667.81;5091732;28;20403;-71
2023/03/26 03:33:48;;;;;;;0.20;0.20;;;;;;;17.08;41.69;99669.78;5091396;28;20082;-70
2023/03/26 03:36:20;;;;;;;0.20;0.20;;;;;;;17.07;41.73;99663.53;5091327;28;20126;-70
2023/03/26 03:38:50;;;;;;;0.70;0.40;;;;;;;17.06;41.81;99656.44;5091294;28;20056;-70
2023/03/26 03:41:18;;;;;;;0.98;0.50;;;;;;;17.03;41.63;99655.91;5091436;28;20097;-70
2023/03/26 03:43:47;;;;;;;1.08;0.40;;;;;;;17.04;41.70;99658.44;5091519;28;20460;-70
2023/03/26 03:46:15;;;;;;;0.30;0.30;;;;;;;17.03;41.57;99672.91;5091381;28;20105;-71
2023/03/26 03:48:48;;;;;;;0.75;0.55;;;;;;;17.02;41.57;99676.63;5091603;28;20076;-70
2023/03/26 03:51:17;;;;;;;0.60;0.40;;;;;;;17.02;41.60;99682.00;5091390;28;20481;-72
2023/03/26 03:53:48;;;;;;;0.50;0.30;;;;;;;17.00;41.82;99684.00;5091311;28;20504;-70
2023/03/26 03:56:17;;;;;;;0.47;0.20;;;;;;;16.99;41.69;99682.31;5091282;28;20487;-70
2023/03/26 03:58:46;;;;;;;0.45;0.25;;;;;;;16.98;41.63;99669.81;5091331;28;20055;-70
2023/03/26 04:01:15;;;;;;;0.82;0.40;;;;;;;16.98;41.70;99675.19;5091339;28;20052;-70
2023/03/26 04:03:45;;;;;;;0.68;0.30;;;;;;;16.97;41.84;99678.88;5092660;28;20044;-71
2023/03/26 04:06:17;;;;;;;0.55;0.30;;;;;;;16.95;41.63;99678.19;5094843;28;20164;-71
2023/03/26 04:08:46;;;;;;;0.73;0.40;;;;;;;16.96;41.64;99679.03;5094882;28;20059;-69
2023/03/26 04:11:14;;;;;;;1.48;0.35;;;;;;;16.95;41.54;99680.03;5094939;28;20531;-71
2023/03/26 04:13:43;;;;;;;1.15;0.50;;;;;;;16.93;41.57;99688.28;5094758;28;20105;-71
2023/03/26 04:16:11;;;;;;;0.65;0.30;;;;;;;16.93;41.52;99688.28;5094479;28;20044;-71
2023/03/26 04:18:39;;;;;;;0.68;0.40;;;;;;;16.93;41.64;99692.81;5094756;28;20040;-71
2023/03/26 04:21:11;;;;;;;0.50;0.20;;;;;;;16.92;41.64;99697.34;5094518;28;20040;-69
2023/03/26 04:23:41;;;;;;;0.38;0.32;;;;;;;16.90;41.72;99696.66;5094486;28;20064;-70
2023/03/26 04:26:16;;;;;;;0.50;0.20;;;;;;;16.88;41.67;99690.53;5094399;28;20085;-70
2023/03/26 04:28:48;;;;;;;0.47;0.40;;;;;;;16.88;41.69;99686.00;5094366;28;20048;-69
2023/03/26 04:31:22;;;;;;;0.57;0.50;;;;;;;16.88;41.65;99680.63;5094598;28;20048;-69
2023/03/26 04:33:54;;;;;;;0.60;0.43;;;;;;;16.85;41.47;99680.91;5094480;28;20048;-70
2023/03/26 04:36:27;;;;;;;0.90;0.40;;;;;;;16.84;41.68;99684.59;5094275;28;20056;-69
2023/03/26 04:39:01;;;;;;;0.85;0.38;;;;;;;16.84;41.72;99684.59;5094162;28;20629;-71
2023/03/26 04:41:31;;;;;;;0.65;0.35;;;;;;;16.83;41.64;99682.06;5094433;28;20097;-71
2023/03/26 04:44:00;;;;;;;0.30;0.20;;;;;;;16.82;41.59;99680.38;5094147;28;20050;-69
2023/03/26 04:46:32;;;;;;;0.43;0.32;;;;;;;16.83;41.65;99692.84;5094249;28;20048;-70
2023/03/26 04:49:01;;;;;;;0.73;0.43;;;;;;;16.81;41.56;99700.22;5094335;28;20044;-70
2023/03/26 04:51:38;;;;;;;0.73;0.32;;;;;;;16.81;41.52;99694.84;5094227;28;20044;-70
2023/03/26 04:54:06;;;;;;;0.65;0.35;;;;;;;16.81;41.54;99694.84;5093971;28;20066;-70
2023/03/26 04:56:42;;;;;;;1.50;0.50;;;;;;;16.77;41.69;99682.63;5093835;28;20055;-70
2023/03/26 04:59:13;;;;;;;1.20;0.65;;;;;;;16.76;41.63;99694.41;5093847;28;20454;-69
2023/03/26 05:01:44;;;;;;;0.52;0.30;;;;;;;16.78;41.60;99700.50;5093715;28;20052;-70
2023/03/26 05:04:13;;;;;;;0.90;0.60;;;;;;;16.76;41.55;99697.09;5093690;28;20055;-70
2023/03/26 05:06:42;;;;;;;0.90;0.50;;;;;;;16.76;41.42;99691.72;5093732;28;20067;-70
2023/03/26 05:09:10;;;;;;;0.70;0.40;;;;;;;16.75;41.54;99690.03;5093744;28;20109;-70
2023/03/26 05:11:39;;;;;;;0.63;0.50;;;;;;;16.74;41.52;99682.94;5093542;28;20048;-70
2023/03/26 05:14:07;;;;;;;1.52;0.38;;;;;;;16.75;41.58;99684.63;5093448;28;20105;-71
2023/03/26 05:16:36;;;;;;;0.70;0.40;;;;;;;16.73;41.50;99681.25;5093607;28;20123;-70
2023/03/26 05:19:05;;;;;;;0.45;0.40;;;;;;;16.71;41.67;99673.31;5093435;28;20113;-71
2023/03/26 05:21:34;;;;;;;1.10;0.47;;;;;;;16.72;41.56;99682.25;5093423;28;20048;-70
2023/03/26 05:24:04;;;;;;;0.35;0.30;;;;;;;16.72;41.67;99682.25;5093343;28;20354;-70
2023/03/26 05:26:32;;;;;;;0.50;0.50;;;;;;;16.71;41.57;99680.53;5093351;28;20075;-71
2023/03/26 05:29:01;;;;;;;0.82;0.50;;;;;;;16.71;41.54;99688.63;5093236;28;20105;-71
2023/03/26 05:31:32;;;;;;;0.93;0.50;;;;;;;16.71;41.57;99683.25;5093285;28;20050;-70
2023/03/26 05:34:00;;;;;;;0.60;0.45;;;;;;;16.70;41.67;99678.84;5072991;28;20068;-70
2023/03/26 05:36:32;;;;;;;0.47;0.40;;;;;;;16.70;41.64;99679.69;5072895;28;20044;-70
2023/03/26 05:39:01;;;;;;;0.73;0.50;;;;;;;16.70;41.58;99681.53;5072587;28;20058;-70
2023/03/26 05:41:30;;;;;;;0.63;0.30;;;;;;;16.70;41.54;99681.53;5072830;28;20060;-71
2023/03/26 05:43:58;;;;;;;1.17;0.40;;;;;;;16.68;41.49;99683.47;5072673;28;20075;-70
2023/03/26 05:46:26;;;;;;;0.47;0.30;;;;;;;16.68;41.64;99680.78;5072717;28;20068;-70
2023/03/26 05:48:55;;;;;;;0.73;0.30;;;;;;;16.68;41.52;99687.03;5071325;28;20056;-71
2023/03/26 05:51:23;;;;;;;0.60;0.30;;;;;;;16.68;41.57;99686.16;5072342;28;20044;-71
2023/03/26 05:53:51;;;;;;;0.80;0.40;;;;;;;16.68;41.55;99688.84;5072142;28;20048;-70
2023/03/26 05:56:20;;;;;;;1.10;0.50;;;;;;;16.68;41.56;99683.47;5072386;28;20044;-70
2023/03/26 05:58:50;;;;;;;0.95;0.60;;;;;;;16.68;41.67;99683.47;5072354;28;20048;-71
2023/03/26 06:01:19;;;;;;;0.63;0.40;;;;;;;16.68;41.67;99678.97;5072264;28;20040;-70
2023/03/26 06:03:48;;;;;;;0.95;0.43;;;;;;;16.68;41.71;99680.78;5072215;28;20094;-70
2023/03/26 06:06:19;;;;;;;0.30;0.30;;;;;;;16.69;41.48;99677.13;5072257;28;20040;-69
2023/03/26 06:08:49;;;;;;;0.98;0.57;;;;;;;16.69;41.87;99677.13;5072312;28;20083;-70
2023/03/26 06:11:36;;;;;;;0.40;0.32;;;;;;;16.67;41.73;99673.69;5072141;28;20059;-70
2023/03/26 06:14:06;;;;;;;0.55;0.50;;;;;;;16.68;41.56;99672.72;5072073;28;20048;-71
2023/03/26 06:16:34;;;;;;;0.65;0.50;;;;;;;16.68;41.59;99676.28;5072078;28;20076;-71
2023/03/26 06:19:03;;;;;;;1.55;0.57;;;;;;;16.68;41.77;99670.88;5071850;28;20046;-70
2023/03/26 06:21:31;;;;;;;1.73;0.52;;;;;;;16.68;41.68;99670.00;5072131;28;20054;-70
2023/03/26 06:23:59;;;;;;;0.75;0.43;;;;;;;16.68;41.79;99667.31;5072160;28;20446;-70
2023/03/26 06:26:27;;;;;;;0.73;0.50;;;;;;;16.67;41.82;99662.94;5071474;28;20048;-71
2023/03/26 06:28:56;;;;;;;1.20;0.52;;;;;;;16.68;41.92;99675.41;5071916;28;20067;-71
2023/03/26 06:31:26;;;;;;;1.50;0.40;;;;;;;16.67;41.68;99669.16;5071943;28;20052;-71
2023/03/26 06:33:54;;;;;;;1.05;0.47;;;;;;;16.67;41.80;99665.63;5072019;28;20051;-71
2023/03/26 06:36:22;;;;;;;0.30;0.30;;;;;;;16.68;41.92;99683.47;5071665;28;20449;-71
2023/03/26 06:38:50;;;;;;;1.20;0.40;;;;;;;16.69;41.70;99682.50;5071473;28;20067;-71
2023/03/26 06:41:18;;;;;;;0.80;0.40;;;;;;;16.68;41.71;99676.28;5071599;28;20054;-71
2023/03/26 06:43:46;;;;;;;1.52;0.60;;;;;;;16.66;41.81;99680.09;5071752;28;20477;-71
2023/03/26 06:46:15;;;;;;;0.70;0.45;;;;;;;16.69;41.90;99685.19;5071499;28;20049;-71
2023/03/26 06:48:45;;;;;;;1.50;0.50;;;;;;;16.67;41.83;99671.00;5071686;28;20045;-71
2023/03/26 06:51:15;;;;;;;1.23;0.57;;;;;;;16.68;41.97;99678.09;5071656;28;20489;-71
2023/03/26 06:53:43;;;;;;;0.73;0.40;;;;;;;16.68;42.04;99683.47;5071695;28;20072;-71
2023/03/26 06:56:11;;;;;;;1.52;0.45;;;;;;;16.69;41.88;99686.06;5071591;28;20048;-71
2023/03/26 06:58:40;;;;;;;1.48;0.45;;;;;;;16.69;41.99;99687.91;5071465;28;20044;-71
2023/03/26 07:01:08;;;;;;;0.50;0.30;;;;;;;16.69;42.02;99677.13;5071559;28;20111;-70
2023/03/26 07:03:36;;;;;;;0.77;0.50;;;;;;;16.68;42.04;99678.09;5071745;28;20051;-70
2023/03/26 07:06:06;;;;;;;0.43;0.30;;;;;;;16.70;42.01;99673.47;5071443;28;20053;-70
2023/03/26 07:08:35;;;;;;;1.13;0.50;;;;;;;16.69;42.05;99671.75;5071327;28;20045;-71
2023/03/26 07:11:03;;;;;;;2.17;0.68;;;;;;;16.71;42.12;99672.47;5071865;28;20119;-71
2023/03/26 07:13:31;;;;;;;1.40;0.47;;;;;;;16.71;42.10;99672.47;5091523;28;20050;-70
2023/03/26 07:16:00;;;;;;;0.60;0.40;;;;;;;16.70;42.18;99665.38;5091567;28;20047;-70
2023/03/26 07:18:28;;;;;;;0.68;0.30;;;;;;;16.71;42.25;99653.63;5091554;28;20085;-71
2023/03/26 07:20:57;;;;;;;0.75;0.40;;;;;;;16.72;42.22;99668.78;5080947;28;20093;-70
2023/03/26 07:23:28;;;;;;;0.95;0.60;;;;;;;16.73;42.14;99659.69;5071408;28;20094;-71
2023/03/26 07:25:56;;;;;;;1.10;0.60;;;;;;;16.73;42.32;99659.69;5071466;28;20098;-71
2023/03/26 07:28:33;;;;;;;0.50;0.30;;;;;;;16.72;42.09;99658.00;5071533;28;20052;-70
2023/03/26 07:31:13;;;;;;;0.57;0.40;;;;;;;16.74;42.19;99662.25;5071286;28;20045;-70
2023/03/26 07:33:48;;;;;;;1.58;0.70;;;;;;;16.73;42.34;99659.69;5071163;28;20131;-71
2023/03/26 07:36:25;;;;;;;0.80;0.35;;;;;;;16.73;42.25;99665.94;5070907;28;20073;-70
2023/03/26 07:39:07;;;;;;;1.15;0.50;;;;;;;16.75;42.22;99665.78;5072507;28;20057;-71
2023/03/26 07:41:45;;;;;;;1.40;0.70;;;;;;;16.76;42.19;99676.41;5074895;28;20106;-71
2023/03/26 07:44:44;;;;;;;0.85;0.50;;;;;;;16.74;42.22;99678.41;5074766;28;20147;-70
2023/03/26 07:47:24;;;;;;;0.68;0.50;;;;;;;16.76;41.87;99670.16;5074798;28;20094;-70
2023/03/26 07:49:57;;;;;;;0.90;0.40;;;;;;;16.77;41.95;99666.47;5074950;28;20052;-72
2023/03/26 07:52:27;;;;;;;0.70;0.45;;;;;;;16.77;41.96;99671.88;5075618;28;20070;-72
2023/03/26 07:54:57;;;;;;;1.40;0.50;;;;;;;16.78;41.69;99670.88;5075804;28;20052;-67
2023/03/26 07:57:43;;;;;;;1.50;0.63;;;;;;;16.77;41.79;99671.88;5074779;28;20044;-72
2023/03/26 08:00:17;;;;;;;0.47;0.35;;;;;;;16.77;41.67;99672.72;5074668;28;20048;-71
2023/03/26 08:03:16;;;;;;;1.55;0.45;;;;;;;16.79;41.56;99686.91;5074467;28;20120;-72
2023/03/26 08:05:53;;;;;;;1.25;0.45;;;;;;;16.78;41.68;99669.03;5074433;28;20147;-72
2023/03/26 08:08:33;;;;;;;1.48;0.50;;;;;;;16.80;41.57;99676.97;5074499;28;20048;-72
2023/03/26 08:11:14;;;;;;;1.20;0.60;;;;;;;16.78;41.37;99685.19;5074219;28;20097;-72
2023/03/26 08:13:56;;;;;;;1.95;0.68;;;;;;;16.80;41.13;99674.28;5074340;28;20489;-71
2023/03/26 08:16:31;;;;;;;1.83;0.65;;;;;;;16.80;41.29;99676.97;5074371;28;20576;-73
2023/03/26 08:19:09;;;;;;;1.00;0.50;;;;;;;16.80;41.17;99682.38;5074148;28;20071;-72
2023/03/26 08:21:46;;;;;;;1.02;0.40;;;;;;;16.80;41.19;99677.81;5074341;28;20135;-72
2023/03/26 08:24:21;;;;;;;0.80;0.50;;;;;;;16.81;41.39;99678.69;5074179;28;20049;-71
2023/03/26 08:26:57;;;;;;;0.82;0.43;;;;;;;16.78;41.21;99668.19;5074006;28;20052;-72
2023/03/26 08:29:33;;;;;;;0.88;0.50;;;;;;;16.82;41.33;99680.38;5074079;28;20442;-72
2023/03/26 08:32:03;;;;;;;1.33;0.57;;;;;;;16.81;41.22;99675.97;5074141;28;20345;-72
2023/03/26 08:34:32;;;;;;;1.17;0.52;;;;;;;16.82;41.13;99669.59;5073879;28;20132;-73
2023/03/26 08:37:00;;;;;;;2.55;0.52;;;;;;;16.81;41.11;99665.22;5073780;28;20094;-71
2023/03/26 08:39:28;;;;;;;1.23;0.50;;;;;;;16.84;41.24;99667.59;5073773;28;20048;-71
2023/03/26 08:42:26;;;;;;;0.82;0.50;;;;;;;16.83;41.22;99664.06;5073909;28;20052;-71
2023/03/26 08:45:34;;;;;;;1.85;0.70;;;;;;;16.84;41.43;99665.75;5061088;28;20521;-73
2023/03/26 08:48:43;;;;;;;1.40;0.73;;;;;;;16.87;41.14;99668.16;5073666;28;20044;-71
2023/03/26 08:51:50;;;;;;;0.68;0.50;;;;;;;16.88;41.25;99661.75;5073532;28;20079;-75
2023/03/26 08:54:47;;;;;;;1.20;0.68;;;;;;;16.90;41.45;99661.63;5073573;28;20083;-67
2023/03/26 08:57:37;;;;;;;4.20;0.77;;;;;;;16.94;42.74;99657.66;5073497;28;20044;-65
2023/03/26 09:00:37;;;;;;;9.43;1.20;;;;;;;16.98;45.42;99648.25;5073217;28;20147;-69
2023/03/26 09:03:26;;;;;;;7.28;1.10;;;;;;;17.03;45.13;99650.53;5073488;28;20040;-72
2023/03/26 09:06:36;;;;;;;5.65;1.27;;;;;;;17.05;45.28;99643.13;5072534;28;20094;-72
2023/03/26 09:09:40;;;;;;;4.20;0.98;;;;;;;17.07;45.14;99644.69;5070017;28;20067;-71
2023/03/26 09:12:46;;;;;;;11.23;1.48;;;;;;;17.10;44.85;99646.25;5092552;28;20558;-69
2023/03/26 09:15:50;;;;;;;13.82;1.15;;;;;;;17.12;44.84;99647.78;5093853;28;20044;-71
2023/03/26 09:18:52;;;;;;;6.30;1.38;;;;;;;17.13;45.00;99632.47;5092126;28;20063;-70
2023/03/26 09:21:46;;;;;;;7.90;1.15;;;;;;;17.15;45.06;99639.41;5084139;28;20503;-70
2023/03/26 09:25:15;;;;;;;6.88;1.20;;;;;;;17.17;44.93;99637.41;5089869;28;20058;-72
2023/03/26 09:28:02;;;;;;;7.63;1.45;;;;;;;17.20;44.91;99630.88;5092776;28;20133;-75
2023/03/26 09:31:13;;;;;;;2.67;1.00;;;;;;;17.20;44.84;99630.88;5077324;28;20051;-74
2023/03/26 09:34:02;;;;;;;5.80;1.25;;;;;;;17.24;45.28;99628.72;5010110;28;20045;-74
2023/03/26 09:36:51;;;;;;;4.95;1.20;;;;;;;17.27;45.05;99625.72;5070180;28;20131;-73
2023/03/26 09:39:31;;;;;;;4.90;1.25;;;;;;;17.27;45.12;99626.56;5091940;28;20056;-72
2023/03/26 09:42:15;;;;;;;7.75;1.30;;;;;;;17.30;45.24;99620.06;5092183;28;20574;-74
2023/03/26 09:45:14;;;;;;;5.00;0.88;;;;;;;17.31;45.43;99614.50;5092246;28;20036;-73
2023/03/26 09:48:08;;;;;;;4.38;1.30;;;;;;;17.35;45.43;99615.03;5092111;28;20465;-73
2023/03/26 09:50:55;;;;;;;3.95;1.00;;;;;;;17.36;45.40;99603.25;5077574;28;20086;-75
2023/03/26 09:53:49;;;;;;;3.08;0.82;;;;;;;17.37;45.16;99605.81;5092225;28;20048;-74
2023/03/26 09:56:29;;;;;;;4.32;0.98;;;;;;;17.38;45.00;99599.44;5091722;28;20404;-73
2023/03/26 09:59:18;;;;;;;5.07;1.20;;;;;;;17.40;44.89;99588.50;5091561;28;20032;-74
2023/03/26 10:01:57;;;;;;;6.20;1.25;;;;;;;17.44;44.91;99595.25;5091288;28;20102;-65
2023/03/26 10:04:51;;;;;;;4.13;1.00;;;;;;;17.50;45.23;99588.44;5075899;28;20051;-68
2023/03/26 10:07:46;;;;;;;2.40;0.80;;;;;;;17.51;45.46;99579.34;5091589;28;20053;-65
2023/03/26 10:10:23;;;;;;;2.70;0.90;;;;;;;17.53;45.10;99567.38;5083329;28;20058;-79
2023/03/26 10:12:56;;;;;;;2.85;0.80;;;;;;;17.57;45.06;99570.66;5091380;28;20077;-69
2023/03/26 10:15:57;;;;;;;5.13;1.02;;;;;;;17.59;45.10;99555.16;5086475;28;20044;-70
2023/03/26 10:18:38;;;;;;;3.97;0.93;;;;;;;17.61;45.08;99555.84;5075601;28;20057;-68
2023/03/26 10:21:16;;;;;;;2.40;0.90;;;;;;;17.60;44.65;99557.69;5091394;28;20044;-62
2023/03/26 10:24:11;;;;;;;3.95;0.85;;;;;;;17.61;44.80;99548.59;5091640;28;20044;-62
2023/03/26 10:26:54;;;;;;;3.33;0.82;;;;;;;17.62;44.55;99544.91;5077772;28;20134;-62
2023/03/26 10:30:08;;;;;;;4.25;1.10;;;;;;;17.62;44.43;99550.28;5091118;28;20398;-63
2023/03/26 10:32:46;;;;;;;3.88;0.85;;;;;;;17.62;44.08;99547.59;5076925;28;20111;-61
2023/03/26 10:35:27;;;;;;;5.13;0.80;;;;;;;17.63;44.10;99561.91;5090169;28;20118;-66
2023/03/26 10:38:13;;;;;;;4.40;0.88;;;;;;;17.63;43.66;99554.69;5091143;28;20076;-68
2023/03/26 10:40:51;;;;;;;2.83;0.80;;;;;;;17.64;43.63;99569.84;5090902;28;20485;-65
2023/03/26 10:44:04;;;;;;;2.85;0.90;;;;;;;17.64;43.02;99559.06;5091186;28;20044;-67
2023/03/26 10:47:16;;;;;;;2.03;0.65;;;;;;;17.65;42.69;99555.38;5050380;28;20500;-69
2023/03/26 10:50:19;;;;;;;2.20;0.80;;;;;;;17.67;42.92;99548.00;5073427;28;20058;-67
2023/03/26 10:52:54;;;;;;;1.43;0.73;;;;;;;17.71;42.89;99541.31;5078661;28;20082;-65
2023/03/26 10:55:30;;;;;;;3.70;0.95;;;;;;;17.74;43.22;99554.47;5090807;28;20603;-65
2023/03/26 10:58:03;;;;;;;2.33;0.73;;;;;;;17.78;43.55;99543.41;5090838;28;20473;-66
2023/03/26 11:00:39;;;;;;;1.23;0.70;;;;;;;17.81;43.59;99532.28;5091118;28;20132;-65
2023/03/26 11:03:42;;;;;;;2.40;0.82;;;;;;;17.82;43.46;99528.56;5092423;28;20062;-66
2023/03/26 11:06:22;;;;;;;2.27;0.70;;;;;;;17.84;43.59;99516.63;5091062;28;20401;-68
2023/03/26 11:08:57;;;;;;;1.73;0.75;;;;;;;17.87;43.39;99520.88;5091190;28;20343;-65
2023/03/26 11:11:32;;;;;;;2.05;0.75;;;;;;;17.88;43.50;99506.38;5090896;28;20139;-66
2023/03/26 11:14:10;;;;;;;1.42;0.60;;;;;;;17.89;43.53;99502.69;5094396;28;20123;-65
2023/03/26 11:16:56;;;;;;;3.97;1.20;;;;;;;17.89;43.29;99497.28;5095237;28;20078;-65
2023/03/26 11:19:33;;;;;;;3.08;0.80;;;;;;;17.90;43.30;99504.38;5095176;28;20048;-68
2023/03/26 11:22:08;;;;;;;1.45;0.65;;;;;;;17.89;43.14;99491.88;5095158;28;20165;-66
2023/03/26 11:25:08;;;;;;;1.02;0.60;;;;;;;17.96;43.12;99483.00;5095142;28;20118;-68
2023/03/26 11:27:56;;;;;;;1.17;0.63;;;;;;;18.01;43.52;99479.81;5090363;28;20048;-68
2023/03/26 11:30:36;;;;;;;1.50;0.70;;;;;;;18.01;43.42;99469.03;5094904;28;20493;-69
2023/03/26 11:33:07;;;;;;;2.40;0.70;;;;;;;18.07;43.43;99464.88;5094930;28;20047;-62
2023/03/26 11:35:38;;;;;;;1.42;0.60;;;;;;;18.07;43.68;99463.00;5095005;28;20042;-67
2023/03/26 11:38:16;;;;;;;1.92;0.85;;;;;;;18.10;44.06;99456.44;5094564;28;20489;-64
2023/03/26 11:40:49;;;;;;;2.42;0.80;;;;;;;18.11;43.95;99448.19;5094809;28;20047;-65
2023/03/26 11:43:24;;;;;;;5.97;1.05;;;;;;;18.15;43.81;99441.47;5094540;28;20044;-65
2023/03/26 11:45:53;;;;;;;1.23;0.80;;;;;;;18.21;43.70;99438.13;5094659;28;20427;-66
2023/03/26 11:48:28;;;;;;;2.58;0.70;;;;;;;18.25;43.85;99431.41;5094684;28;20048;-70
2023/03/26 11:51:03;;;;;;;2.05;0.88;;;;;;;18.27;43.89;99426.69;5094813;28;20101;-65
2023/03/26 11:53:37;;;;;;;2.13;0.88;;;;;;;18.31;43.90;99417.25;5094371;28;20043;-65
2023/03/26 11:56:13;;;;;;;1.63;0.60;;;;;;;18.40;43.93;99414.59;5094795;28;20056;-65
2023/03/26 11:58:50;;;;;;;1.70;0.60;;;;;;;18.44;43.82;99408.72;5094029;28;20406;-66
2023/03/26 12:01:28;;;;;;;1.48;0.68;;;;;;;18.49;43.94;99409.06;5094309;28;20056;-65
2023/03/26 12:04:02;;;;;;;1.13;0.65;;;;;;;18.58;43.59;99410.78;5094242;28;20052;-64
2023/03/26 12:06:31;;;;;;;1.20;0.60;;;;;;;18.65;43.82;99391.25;5094277;28;20039;-62
2023/03/26 12:09:00;;;;;;;0.80;0.45;;;;;;;18.70;43.73;99378.06;5094077;28;20050;-63
2023/03/26 12:11:33;;;;;;;1.48;0.70;;;;;;;18.73;43.49;99380.47;5094314;28;20047;-63
2023/03/26 12:14:05;;;;;;;3.03;0.90;;;;;;;18.74;43.28;99371.34;5094242;28;20043;-65